createdAt,value
2018-09-27T00:02:04.783Z,13.50
2018-09-27T00:04:31.988Z,13.40
2018-09-27T00:06:59.198Z,13.40
2018-09-27T00:09:26.424Z,13.40
2018-09-27T00:11:53.743Z,13.30
2018-09-27T00:14:20.945Z,13.40
2018-09-27T00:16:48.191Z,13.40
2018-09-27T00:19:15.395Z,13.30
2018-09-27T00:21:42.566Z,13.30
2018-09-27T00:24:09.882Z,13.20
2018-09-27T00:26:37.121Z,13.20
2018-09-27T00:29:04.373Z,13.20
2018-09-27T00:31:31.718Z,13.20
2018-09-27T00:33:58.915Z,13.20
2018-09-27T00:36:26.105Z,13.10
2018-09-27T00:38:53.399Z,13.10
2018-09-27T00:41:20.643Z,13.10
2018-09-27T00:43:47.833Z,13.00
2018-09-27T00:46:15.190Z,13.00
2018-09-27T00:48:42.392Z,12.90
2018-09-27T00:51:09.587Z,13.10
2018-09-27T00:53:36.922Z,13.10
2018-09-27T00:56:04.113Z,13.00
2018-09-27T00:58:31.322Z,13.00
2018-09-27T01:00:58.658Z,13.00
2018-09-27T01:03:25.869Z,12.90
2018-09-27T01:05:53.076Z,13.00
2018-09-27T01:08:20.390Z,13.00
2018-09-27T01:10:47.582Z,13.00
2018-09-27T01:13:14.793Z,12.90
2018-09-27T01:15:42.104Z,12.90
2018-09-27T01:18:09.310Z,12.90
2018-09-27T01:20:36.574Z,12.80
2018-09-27T01:23:03.975Z,12.80
2018-09-27T01:25:31.195Z,12.80
2018-09-27T01:27:58.497Z,12.80
2018-09-27T01:30:25.748Z,12.70
2018-09-27T01:32:52.935Z,12.70
2018-09-27T01:35:20.124Z,12.70
2018-09-27T01:37:47.410Z,12.70
2018-09-27T01:40:14.591Z,12.70
2018-09-27T01:42:41.870Z,12.60
2018-09-27T01:45:09.162Z,12.60
2018-09-27T01:47:36.366Z,12.50
2018-09-27T01:50:03.561Z,12.60
2018-09-27T01:52:30.884Z,12.60
2018-09-27T01:54:58.054Z,12.50
2018-09-27T01:57:25.263Z,12.50
2018-09-27T01:59:52.579Z,12.40
2018-09-27T02:02:19.775Z,12.50
2018-09-27T02:04:46.964Z,12.50
2018-09-27T02:07:14.283Z,12.60
2018-09-27T02:09:41.481Z,12.70
2018-09-27T02:12:08.669Z,12.70
2018-09-27T02:14:36.219Z,12.80
2018-09-27T02:17:03.438Z,12.90
2018-09-27T02:19:30.621Z,12.90
2018-09-27T02:21:57.939Z,13.00
2018-09-27T02:24:25.137Z,13.00
2018-09-27T02:26:52.370Z,12.90
2018-09-27T02:29:19.734Z,13.00
2018-09-27T02:31:46.945Z,13.00
2018-09-27T02:34:14.155Z,13.00
2018-09-27T02:36:41.469Z,13.10
2018-09-27T02:39:09.623Z,13.10
2018-09-27T02:41:37.200Z,13.10
2018-09-27T02:44:04.526Z,13.10
2018-09-27T02:46:31.741Z,13.00
2018-09-27T02:48:58.938Z,13.00
2018-09-27T02:51:26.183Z,12.90
2018-09-27T02:54:00.053Z,12.90
2018-09-27T02:56:27.378Z,12.90
2018-09-27T02:58:54.559Z,13.00
2018-09-27T03:01:21.768Z,13.00
2018-09-27T03:03:49.015Z,13.00
2018-09-27T03:06:16.240Z,13.00
2018-09-27T03:08:43.437Z,13.00
2018-09-27T03:11:10.735Z,13.10
2018-09-27T03:13:37.991Z,13.00
2018-09-27T03:16:05.212Z,13.10
2018-09-27T03:18:32.552Z,13.10
2018-09-27T03:20:59.801Z,13.10
2018-09-27T03:23:26.967Z,13.10
2018-09-27T03:25:54.546Z,13.10
2018-09-27T03:28:21.743Z,13.00
2018-09-27T03:30:48.930Z,12.90
2018-09-27T03:33:16.247Z,12.80
2018-09-27T03:35:43.453Z,12.80
2018-09-27T03:38:10.707Z,12.80
2018-09-27T03:40:38.218Z,12.80
2018-09-27T03:43:05.304Z,12.80
2018-09-27T03:45:32.492Z,12.80
2018-09-27T03:47:59.806Z,12.90
2018-09-27T03:50:27.014Z,12.80
2018-09-27T03:52:54.216Z,12.80
2018-09-27T03:55:21.442Z,12.80
2018-09-27T03:57:48.680Z,12.80
2018-09-27T04:00:15.876Z,12.70
2018-09-27T04:02:43.243Z,12.70
2018-09-27T04:05:10.438Z,12.70
2018-09-27T04:07:37.623Z,12.70
2018-09-27T04:10:04.947Z,12.70
2018-09-27T04:12:32.158Z,12.60
2018-09-27T04:14:59.384Z,12.60
2018-09-27T04:17:26.692Z,12.60
2018-09-27T04:19:53.902Z,12.50
2018-09-27T04:22:21.098Z,12.50
2018-09-27T04:24:48.502Z,12.50
2018-09-27T04:27:15.729Z,12.40
2018-09-27T04:29:42.976Z,12.40
2018-09-27T04:32:10.266Z,12.40
2018-09-27T04:34:37.491Z,12.40
2018-09-27T04:37:04.699Z,12.40
2018-09-27T04:39:31.995Z,12.30
2018-09-27T04:41:59.209Z,12.20
2018-09-27T04:44:26.427Z,12.10
2018-09-27T04:46:53.740Z,12.10
2018-09-27T04:49:20.931Z,12.20
2018-09-27T04:51:48.156Z,12.10
2018-09-27T04:54:15.397Z,12.10
2018-09-27T04:56:42.593Z,12.20
2018-09-27T04:59:09.798Z,12.10
2018-09-27T05:01:37.028Z,12.10
2018-09-27T05:04:04.276Z,12.10
2018-09-27T05:06:31.556Z,12.10
2018-09-27T05:08:58.724Z,12.00
2018-09-27T05:11:25.964Z,12.10
2018-09-27T05:13:53.162Z,12.10
2018-09-27T05:16:20.574Z,12.20
2018-09-27T05:18:47.824Z,12.10
2018-09-27T05:21:15.029Z,12.20
2018-09-27T05:23:42.384Z,12.20
2018-09-27T05:26:09.602Z,12.30
2018-09-27T05:28:36.850Z,12.20
2018-09-27T05:31:04.146Z,12.20
2018-09-27T05:33:31.353Z,12.10
2018-09-27T05:35:58.533Z,12.10
2018-09-27T05:38:25.861Z,12.10
2018-09-27T05:40:53.138Z,12.10
2018-09-27T05:43:20.325Z,12.10
2018-09-27T05:45:47.561Z,12.20
2018-09-27T05:48:14.782Z,12.20
2018-09-27T05:50:42.001Z,12.30
2018-09-27T05:53:09.432Z,12.30
2018-09-27T05:55:37.024Z,12.30
2018-09-27T05:58:04.453Z,12.40
2018-09-27T06:00:31.823Z,12.40
2018-09-27T06:02:59.002Z,12.50
2018-09-27T06:05:26.203Z,12.60
2018-09-27T06:07:54.254Z,12.60
2018-09-27T06:10:21.492Z,12.70
2018-09-27T06:12:48.708Z,12.70
2018-09-27T06:15:16.040Z,12.80
2018-09-27T06:17:43.217Z,12.80
2018-09-27T06:20:10.442Z,12.80
2018-09-27T06:22:37.767Z,12.90
2018-09-27T06:25:04.956Z,12.90
2018-09-27T06:27:32.189Z,12.90
2018-09-27T06:29:59.512Z,13.10
2018-09-27T06:32:26.711Z,13.20
2018-09-27T06:34:53.970Z,13.30
2018-09-27T06:37:21.272Z,13.30
2018-09-27T06:39:48.464Z,13.30
2018-09-27T06:42:15.642Z,13.30
2018-09-27T06:44:42.987Z,13.30
2018-09-27T06:47:10.199Z,13.30
2018-09-27T06:49:37.427Z,13.40
2018-09-27T06:52:04.869Z,13.40
2018-09-27T06:54:32.123Z,13.40
2018-09-27T06:56:59.311Z,13.50
2018-09-27T06:59:26.602Z,13.50
2018-09-27T07:01:53.791Z,13.60
2018-09-27T07:04:21.004Z,13.70
2018-09-27T07:06:48.364Z,13.70
2018-09-27T07:09:15.555Z,13.70
2018-09-27T07:11:42.779Z,13.80
2018-09-27T07:14:10.737Z,14.10
2018-09-27T07:16:37.943Z,14.10
2018-09-27T07:19:05.573Z,14.10
2018-09-27T07:21:32.891Z,14.50
2018-09-27T07:24:00.121Z,14.50
2018-09-27T07:26:27.386Z,14.60
2018-09-27T07:28:54.712Z,14.60
2018-09-27T07:31:21.923Z,14.70
2018-09-27T07:33:49.130Z,14.70
2018-09-27T07:36:16.358Z,14.80
2018-09-27T07:38:43.597Z,14.80
2018-09-27T07:41:10.766Z,14.80
2018-09-27T07:43:38.004Z,14.90
2018-09-27T07:46:05.313Z,15.00
2018-09-27T07:48:32.515Z,15.00
2018-09-27T07:51:00.129Z,15.20
2018-09-27T07:53:27.414Z,15.30
2018-09-27T07:55:54.607Z,15.40
2018-09-27T07:58:21.919Z,15.50
2018-09-27T08:00:49.113Z,15.70
2018-09-27T08:03:16.316Z,15.90
2018-09-27T08:05:43.638Z,16.00
2018-09-27T08:08:10.822Z,16.00
2018-09-27T08:10:38.096Z,16.30
2018-09-27T08:13:05.410Z,16.20
2018-09-27T08:15:32.616Z,15.80
2018-09-27T08:18:00.524Z,15.70
2018-09-27T08:20:27.864Z,15.70
2018-09-27T08:22:55.033Z,15.70
2018-09-27T08:25:22.222Z,15.90
2018-09-27T08:27:49.524Z,15.90
2018-09-27T08:30:16.749Z,15.80
2018-09-27T08:32:44.016Z,15.70
2018-09-27T08:35:11.279Z,15.50
2018-09-27T08:37:38.564Z,15.40
2018-09-27T08:40:06.087Z,15.30
2018-09-27T08:42:33.424Z,15.30
2018-09-27T08:45:01.900Z,15.40
2018-09-27T08:47:28.815Z,15.40
2018-09-27T08:49:56.119Z,15.40
2018-09-27T08:52:23.298Z,15.30
2018-09-27T08:54:50.501Z,15.30
2018-09-27T08:57:17.710Z,15.20
2018-09-27T08:59:44.938Z,15.20
2018-09-27T09:02:12.139Z,15.10
2018-09-27T09:04:39.445Z,15.20
2018-09-27T09:07:06.644Z,15.30
2018-09-27T09:09:33.903Z,15.30
2018-09-27T09:12:01.112Z,15.30
2018-09-27T09:14:28.328Z,15.30
2018-09-27T09:16:55.544Z,15.30
2018-09-27T09:19:22.923Z,15.30
2018-09-27T09:21:50.154Z,15.40
2018-09-27T09:24:17.355Z,15.40
2018-09-27T09:26:44.662Z,15.40
2018-09-27T09:29:11.855Z,15.40
2018-09-27T09:31:39.119Z,15.40
2018-09-27T09:34:06.493Z,15.60
2018-09-27T09:36:33.691Z,15.80
2018-09-27T09:39:00.885Z,16.10
2018-09-27T09:41:28.196Z,16.20
2018-09-27T09:43:55.401Z,16.30
2018-09-27T09:46:22.611Z,16.30
2018-09-27T09:48:49.924Z,16.30
2018-09-27T09:51:17.135Z,16.20
2018-09-27T09:53:44.337Z,16.20
2018-09-27T09:56:11.659Z,16.30
2018-09-27T09:58:38.850Z,16.30
2018-09-27T10:01:06.095Z,16.30
2018-09-27T10:03:33.327Z,16.30
2018-09-27T10:06:00.528Z,16.30
2018-09-27T10:08:27.746Z,16.60
2018-09-27T10:10:55.039Z,16.80
2018-09-27T10:13:22.249Z,16.80
2018-09-27T10:15:49.443Z,16.90
2018-09-27T10:20:50.923Z,16.80
2018-09-27T10:23:18.250Z,17.00
2018-09-27T10:25:45.431Z,17.00
2018-09-27T10:28:12.645Z,16.90
2018-09-27T10:30:39.899Z,16.90
2018-09-27T10:33:07.173Z,16.90
2018-09-27T10:35:34.387Z,17.00
2018-09-27T10:38:01.702Z,17.00
2018-09-27T10:40:28.913Z,16.80
2018-09-27T10:42:56.097Z,16.80
2018-09-27T10:45:23.339Z,16.70
2018-09-27T10:47:50.540Z,16.90
2018-09-27T10:50:17.730Z,17.20
2018-09-27T10:52:45.039Z,17.70
2018-09-27T10:55:12.309Z,18.00
2018-09-27T10:57:39.568Z,18.00
2018-09-27T11:00:07.023Z,17.90
2018-09-27T11:02:34.205Z,18.00
2018-09-27T11:05:01.403Z,17.80
2018-09-27T11:07:28.717Z,17.90
2018-09-27T11:09:55.930Z,17.80
2018-09-27T11:12:23.129Z,17.90
2018-09-27T11:14:50.427Z,18.00
2018-09-27T11:17:17.611Z,18.10
2018-09-27T11:19:44.812Z,18.20
2018-09-27T11:22:12.840Z,18.40
2018-09-27T11:24:40.092Z,18.60
2018-09-27T11:27:07.586Z,18.50
2018-09-27T11:29:40.761Z,18.40
2018-09-27T11:32:13.630Z,18.40
2018-09-27T11:34:40.922Z,18.40
2018-09-27T11:37:08.196Z,18.40
2018-09-27T11:39:35.429Z,18.40
2018-09-27T11:42:02.749Z,18.30
2018-09-27T11:44:29.950Z,18.50
2018-09-27T11:46:57.233Z,18.60
2018-09-27T11:49:27.450Z,18.60
2018-09-27T11:51:54.683Z,18.60
2018-09-27T11:54:22.223Z,18.60
2018-09-27T11:56:50.366Z,18.60
2018-09-27T11:59:17.575Z,18.60
2018-09-27T12:01:44.881Z,18.50
2018-09-27T12:04:12.163Z,18.40
2018-09-27T12:06:39.436Z,18.10
2018-09-27T12:09:08.758Z,18.00
2018-09-27T12:11:36.040Z,18.00
2018-09-27T12:14:03.243Z,18.00
2018-09-27T12:16:30.539Z,18.00
2018-09-27T12:18:57.811Z,17.90
2018-09-27T12:21:25.000Z,18.00
2018-09-27T12:23:52.211Z,18.10
2018-09-27T12:26:19.447Z,18.20
2018-09-27T12:28:46.703Z,18.20
2018-09-27T12:31:13.896Z,18.30
2018-09-27T12:33:41.176Z,18.40
2018-09-27T12:36:08.494Z,18.40
2018-09-27T12:38:35.768Z,18.40
2018-09-27T12:41:02.990Z,18.60
2018-09-27T12:43:30.186Z,18.40
2018-09-27T12:45:57.503Z,18.10
2018-09-27T12:48:24.802Z,18.10
2018-09-27T12:50:51.979Z,18.10
2018-09-27T12:53:19.222Z,18.00
2018-09-27T12:55:46.560Z,18.10
2018-09-27T12:58:13.815Z,18.20
2018-09-27T13:00:41.046Z,18.20
2018-09-27T13:03:08.266Z,18.10
2018-09-27T13:05:35.475Z,18.30
2018-09-27T13:08:02.657Z,18.20
2018-09-27T13:10:29.913Z,18.10
2018-09-27T13:12:57.118Z,18.00
2018-09-27T13:15:24.336Z,18.00
2018-09-27T13:17:51.633Z,18.00
2018-09-27T13:20:18.849Z,18.10
2018-09-27T13:22:46.024Z,18.10
2018-09-27T13:25:13.363Z,17.90
2018-09-27T13:27:40.536Z,17.80
2018-09-27T13:30:07.822Z,17.80
2018-09-27T13:32:35.151Z,17.70
2018-09-27T13:35:02.401Z,17.70
2018-09-27T13:37:29.590Z,17.50
2018-09-27T13:39:56.982Z,17.40
2018-09-27T13:42:24.335Z,17.40
2018-09-27T13:44:51.544Z,17.40
2018-09-27T13:47:18.862Z,17.40
2018-09-27T13:49:46.074Z,17.20
2018-09-27T13:52:13.254Z,17.10
2018-09-27T13:54:40.574Z,17.00
2018-09-27T13:57:07.969Z,16.90
2018-09-27T13:59:35.077Z,16.90
2018-09-27T14:02:02.376Z,16.80
2018-09-27T14:04:29.555Z,16.80
2018-09-27T14:06:56.737Z,16.80
2018-09-27T14:09:24.033Z,16.80
2018-09-27T14:11:51.257Z,16.80
2018-09-27T14:14:18.455Z,16.80
2018-09-27T14:16:45.772Z,16.80
2018-09-27T14:19:13.002Z,16.70
2018-09-27T14:21:40.187Z,16.70
2018-09-27T14:24:07.416Z,16.60
2018-09-27T14:26:34.592Z,16.60
2018-09-27T14:29:01.771Z,16.60
2018-09-27T14:31:29.136Z,16.50
2018-09-27T14:33:56.389Z,16.50
2018-09-27T14:36:23.572Z,16.50
2018-09-27T14:38:50.859Z,16.50
2018-09-27T14:41:18.094Z,16.60
2018-09-27T14:43:45.274Z,16.60
2018-09-27T14:46:12.566Z,16.60
2018-09-27T14:48:39.797Z,16.60
2018-09-27T14:51:06.979Z,16.60
2018-09-27T14:53:34.309Z,16.60
2018-09-27T14:56:01.517Z,16.50
2018-09-27T14:58:28.735Z,16.50
2018-09-27T15:00:56.164Z,16.50
2018-09-27T15:03:23.351Z,16.60
2018-09-27T15:05:51.329Z,16.70
2018-09-27T15:08:18.687Z,16.70
2018-09-27T15:10:45.942Z,16.70
2018-09-27T15:13:13.072Z,16.60
2018-09-27T15:15:40.363Z,16.60
2018-09-27T15:18:07.570Z,16.60
2018-09-27T15:20:34.818Z,16.60
2018-09-27T15:23:02.191Z,16.50
2018-09-27T15:25:29.403Z,16.50
2018-09-27T15:27:56.605Z,16.50
2018-09-27T15:30:23.939Z,16.50
2018-09-27T15:32:51.094Z,16.50
2018-09-27T15:35:18.311Z,16.50
2018-09-27T15:37:45.599Z,16.50
2018-09-27T15:40:12.787Z,16.50
2018-09-27T15:42:39.996Z,16.50
2018-09-27T15:45:07.299Z,16.50
2018-09-27T15:47:34.493Z,16.40
2018-09-27T15:50:01.692Z,16.40
2018-09-27T15:52:28.985Z,16.40
2018-09-27T15:54:56.184Z,16.40
2018-09-27T15:57:23.379Z,16.30
2018-09-27T15:59:50.938Z,16.30
2018-09-27T16:02:18.167Z,16.30
2018-09-27T16:04:45.384Z,16.30
2018-09-27T16:07:12.634Z,16.30
2018-09-27T16:09:39.845Z,16.30
2018-09-27T16:12:07.057Z,16.20
2018-09-27T16:14:34.377Z,16.20
2018-09-27T16:17:01.555Z,16.20
2018-09-27T16:19:28.776Z,16.10
2018-09-27T16:21:56.094Z,16.10
2018-09-27T16:24:23.326Z,16.10
2018-09-27T16:26:50.543Z,16.10
2018-09-27T16:29:17.890Z,16.00
2018-09-27T16:31:45.116Z,16.00
2018-09-27T16:34:12.310Z,16.00
2018-09-27T16:36:39.654Z,15.90
2018-09-27T16:39:08.101Z,15.90
2018-09-27T16:41:35.302Z,15.80
2018-09-27T16:44:02.626Z,15.80
2018-09-27T16:46:30.757Z,15.70
2018-09-27T16:48:58.040Z,15.60
2018-09-27T16:51:25.255Z,15.60
2018-09-27T16:53:52.459Z,15.60
2018-09-27T16:56:19.700Z,15.50
2018-09-27T16:58:47.038Z,15.50
2018-09-27T17:01:14.276Z,15.40
2018-09-27T17:03:41.487Z,15.40
2018-09-27T17:06:08.832Z,15.40
2018-09-27T17:08:36.045Z,15.40
2018-09-27T17:11:03.304Z,15.40
2018-09-27T17:13:30.566Z,15.40
2018-09-27T17:15:57.788Z,15.50
2018-09-27T17:18:25.003Z,15.40
2018-09-27T17:20:52.326Z,15.40
2018-09-27T17:23:19.535Z,15.40
2018-09-27T17:25:46.781Z,15.40
2018-09-27T17:28:14.110Z,15.40
2018-09-27T17:30:41.348Z,15.40
2018-09-27T17:33:08.560Z,15.40
2018-09-27T17:35:35.967Z,15.30
2018-09-27T17:38:03.152Z,15.30
2018-09-27T17:40:30.385Z,15.20
2018-09-27T17:42:57.792Z,15.20
2018-09-27T17:45:24.996Z,15.20
2018-09-27T17:47:52.183Z,15.30
2018-09-27T17:50:19.887Z,15.40
2018-09-27T17:52:47.076Z,15.40
2018-09-27T17:55:14.342Z,15.40
2018-09-27T17:57:41.639Z,15.40
2018-09-27T18:00:08.836Z,15.40
2018-09-27T18:02:36.027Z,15.40
2018-09-27T18:05:03.473Z,15.40
2018-09-27T18:07:30.681Z,15.40
2018-09-27T18:09:57.882Z,15.40
2018-09-27T18:12:25.199Z,15.40
2018-09-27T18:14:52.383Z,15.40
2018-09-27T18:17:19.797Z,15.50
2018-09-27T18:19:47.177Z,15.50
2018-09-27T18:22:14.390Z,15.50
2018-09-27T18:24:41.611Z,15.50
2018-09-27T18:27:08.909Z,15.50
2018-09-27T18:29:36.105Z,15.50
2018-09-27T18:32:03.286Z,15.50
2018-09-27T18:34:30.772Z,15.50
2018-09-27T18:36:57.970Z,15.50
2018-09-27T18:39:25.808Z,15.50
2018-09-27T18:41:53.107Z,15.40
2018-09-27T18:44:20.292Z,15.40
2018-09-27T18:46:47.495Z,15.40
2018-09-27T18:49:14.805Z,15.40
2018-09-27T18:51:42.019Z,15.40
2018-09-27T18:54:09.214Z,15.40
2018-09-27T18:56:36.605Z,15.40
2018-09-27T18:59:03.817Z,15.50
2018-09-27T19:01:31.023Z,15.50
2018-09-27T19:03:58.272Z,15.50
2018-09-27T19:06:25.536Z,15.50
2018-09-27T19:08:52.870Z,15.50
2018-09-27T19:11:20.193Z,15.40
2018-09-27T19:13:47.383Z,15.40
2018-09-27T19:16:14.604Z,15.40
2018-09-27T19:18:41.974Z,15.40
2018-09-27T19:21:09.176Z,15.40
2018-09-27T19:23:36.524Z,15.40
2018-09-27T19:26:03.841Z,15.40
2018-09-27T19:28:31.059Z,15.40
2018-09-27T19:33:32.545Z,15.40
2018-09-27T19:35:59.749Z,15.40
2018-09-27T19:38:27.749Z,15.50
2018-09-27T19:40:55.119Z,15.50
2018-09-27T19:43:22.315Z,15.50
2018-09-27T19:45:49.786Z,15.50
2018-09-27T19:48:17.094Z,15.50
2018-09-27T19:50:44.414Z,15.50
2018-09-27T19:53:11.627Z,15.60
2018-09-27T19:55:38.920Z,15.60
2018-09-27T19:58:06.202Z,15.60
2018-09-27T20:00:33.355Z,15.60
2018-09-27T20:03:00.703Z,15.60
2018-09-27T20:05:27.943Z,15.70
2018-09-27T20:07:55.130Z,15.80
2018-09-27T20:10:22.465Z,15.80
2018-09-27T20:12:49.665Z,15.70
2018-09-27T20:15:16.846Z,15.80
2018-09-27T20:17:44.196Z,15.80
2018-09-27T20:20:11.505Z,15.80
2018-09-27T20:22:38.789Z,15.70
2018-09-27T20:25:05.955Z,15.80
2018-09-27T20:27:33.163Z,15.90
2018-09-27T20:30:00.396Z,15.80
2018-09-27T20:32:27.729Z,15.70
2018-09-27T20:34:55.001Z,15.70
2018-09-27T20:37:22.139Z,15.70
2018-09-27T20:39:49.448Z,15.70
2018-09-27T20:42:16.635Z,15.60
2018-09-27T20:47:18.145Z,15.50
2018-09-27T20:49:45.399Z,15.60
2018-09-27T20:52:12.751Z,15.60
2018-09-27T20:54:40.063Z,15.50
2018-09-27T20:57:07.588Z,15.50
2018-09-27T20:59:34.782Z,15.50
2018-09-27T21:02:02.087Z,15.50
2018-09-27T21:04:29.363Z,15.50
2018-09-27T21:06:56.570Z,15.50
2018-09-27T21:09:23.823Z,15.50
2018-09-27T21:11:51.039Z,15.40
2018-09-27T21:14:18.235Z,15.40
2018-09-27T21:16:45.554Z,15.40
2018-09-27T21:19:12.753Z,15.40
2018-09-27T21:21:39.959Z,15.20
2018-09-27T21:24:07.322Z,14.50
2018-09-27T21:26:34.624Z,14.10
2018-09-27T21:29:01.787Z,13.90
2018-09-27T21:31:29.096Z,13.80
2018-09-27T21:33:56.310Z,13.70
2018-09-27T21:36:23.535Z,13.60
2018-09-27T21:38:50.838Z,13.40
2018-09-27T21:41:18.037Z,13.30
2018-09-27T21:43:45.261Z,13.30
2018-09-27T21:46:12.623Z,13.30
2018-09-27T21:48:39.834Z,13.30
2018-09-27T21:51:07.046Z,13.20
2018-09-27T21:53:34.376Z,13.20
2018-09-27T21:56:01.922Z,13.10
2018-09-27T21:58:29.126Z,13.10
2018-09-27T22:00:56.436Z,13.00
2018-09-27T22:03:23.858Z,12.80
2018-09-27T22:05:51.177Z,12.80
2018-09-27T22:08:18.471Z,12.80
2018-09-27T22:10:45.687Z,12.80
2018-09-27T22:13:12.896Z,12.80
2018-09-27T22:15:40.263Z,12.80
2018-09-27T22:18:07.460Z,12.90
2018-09-27T22:20:34.667Z,12.90
2018-09-27T22:23:02.068Z,12.90
2018-09-27T22:25:29.304Z,12.90
2018-09-27T22:27:56.509Z,12.90
2018-09-27T22:30:23.822Z,12.90
2018-09-27T22:32:51.036Z,12.90
2018-09-27T22:35:18.242Z,12.80
2018-09-27T22:37:45.571Z,12.80
2018-09-27T22:40:12.980Z,12.80
2018-09-27T22:42:40.176Z,12.70
2018-09-27T22:45:07.516Z,12.70
2018-09-27T22:47:35.480Z,12.80
2018-09-27T22:50:02.694Z,12.80
2018-09-27T22:52:30.040Z,12.70
2018-09-27T22:54:57.254Z,12.70
2018-09-27T22:57:24.492Z,12.60
2018-09-27T22:59:51.787Z,12.60
2018-09-27T23:02:19.046Z,12.60
2018-09-27T23:04:46.234Z,12.50
2018-09-27T23:07:13.479Z,12.50
2018-09-27T23:09:40.679Z,12.40
2018-09-27T23:12:07.878Z,12.40
2018-09-27T23:14:35.187Z,12.40
2018-09-27T23:17:02.383Z,12.40
2018-09-27T23:19:29.614Z,12.40
2018-09-27T23:21:56.887Z,12.40
2018-09-27T23:24:24.100Z,12.30
2018-09-27T23:26:51.292Z,12.30
2018-09-27T23:29:18.523Z,12.30
2018-09-27T23:31:45.802Z,12.20
2018-09-27T23:34:13.112Z,12.20
2018-09-27T23:36:40.419Z,12.20
2018-09-27T23:39:08.487Z,12.20
2018-09-27T23:41:35.878Z,12.20
2018-09-27T23:44:03.314Z,12.20
2018-09-27T23:46:30.521Z,12.10
2018-09-27T23:48:57.762Z,12.10
2018-09-27T23:51:25.124Z,12.10
2018-09-27T23:53:52.322Z,12.10
2018-09-27T23:56:19.527Z,12.00
2018-09-27T23:58:46.761Z,12.00
